createdAt,value
2022-08-05T00:02:51.707Z,18.10
2022-08-05T00:06:36.079Z,18.00
2022-08-05T00:10:18.316Z,18.00
2022-08-05T00:14:00.235Z,17.90
2022-08-05T00:17:44.009Z,17.90
2022-08-05T00:21:30.495Z,17.80
2022-08-05T00:25:12.910Z,17.80
2022-08-05T00:28:54.784Z,17.70
2022-08-05T00:32:36.666Z,17.70
2022-08-05T00:37:12.338Z,17.60
2022-08-05T00:40:28.386Z,17.50
2022-08-05T00:44:10.835Z,17.50
2022-08-05T00:47:57.795Z,17.50
2022-08-05T00:51:51.051Z,17.50
2022-08-05T00:55:43.651Z,17.40
2022-08-05T00:59:25.900Z,17.30
2022-08-05T01:03:22.832Z,17.30
2022-08-05T01:07:07.088Z,17.20
2022-08-05T01:11:01.013Z,17.20
2022-08-05T01:14:59.496Z,17.10
2022-08-05T01:18:53.742Z,17.20
2022-08-05T01:23:25.847Z,17.10
2022-08-05T01:27:54.977Z,17.00
2022-08-05T01:31:51.247Z,17.10
2022-08-05T01:35:51.657Z,17.00
2022-08-05T01:39:46.454Z,17.00
2022-08-05T01:43:30.668Z,17.00
2022-08-05T01:47:16.200Z,16.90
2022-08-05T01:51:00.166Z,16.90
2022-08-05T01:55:02.526Z,16.90
2022-08-05T01:58:52.544Z,16.80
2022-08-05T02:02:38.028Z,16.80
2022-08-05T02:06:37.508Z,16.70
2022-08-05T02:10:23.647Z,16.60
2022-08-05T02:14:20.952Z,16.50
2022-08-05T02:18:32.645Z,16.50
2022-08-05T02:22:26.120Z,16.40
2022-08-05T02:26:13.148Z,16.30
2022-08-05T02:29:58.082Z,16.20
2022-08-05T02:33:50.044Z,16.20
2022-08-05T02:37:41.571Z,16.00
2022-08-05T02:41:28.319Z,16.00
2022-08-05T02:45:19.410Z,15.90
2022-08-05T02:49:07.686Z,15.90
2022-08-05T02:52:57.552Z,15.80
2022-08-05T02:56:41.213Z,15.80
2022-08-05T03:00:29.047Z,15.80
2022-08-05T03:04:15.732Z,15.70
2022-08-05T03:08:06.795Z,15.70
2022-08-05T03:11:56.042Z,15.70
2022-08-05T03:15:46.081Z,15.70
2022-08-05T03:19:34.082Z,15.60
2022-08-05T03:23:18.019Z,15.60
2022-08-05T03:27:00.525Z,15.60
2022-08-05T03:30:43.363Z,15.60
2022-08-05T03:34:27.468Z,15.50
2022-08-05T03:38:14.776Z,15.50
2022-08-05T03:41:57.181Z,15.40
2022-08-05T03:45:55.172Z,15.40
2022-08-05T03:49:51.644Z,15.40
2022-08-05T03:55:52.021Z,15.30
2022-08-05T03:58:10.169Z,15.20
2022-08-05T04:01:53.533Z,15.10
2022-08-05T04:05:42.513Z,15.00
2022-08-05T04:09:26.375Z,15.00
2022-08-05T04:13:08.549Z,14.90
2022-08-05T04:16:50.825Z,14.80
2022-08-05T04:20:35.006Z,14.80
2022-08-05T04:24:19.601Z,14.60
2022-08-05T04:32:02.119Z,14.50
2022-08-05T04:36:16.739Z,14.40
2022-08-05T04:39:52.768Z,14.30
2022-08-05T04:43:37.106Z,14.20
2022-08-05T04:47:20.221Z,14.20
2022-08-05T04:51:11.187Z,14.10
2022-08-05T04:54:53.581Z,14.00
2022-08-05T04:58:41.292Z,14.00
2022-08-05T05:02:41.245Z,13.90
2022-08-05T05:06:39.594Z,13.80
2022-08-05T05:10:29.561Z,13.70
2022-08-05T05:14:16.019Z,13.60
2022-08-05T05:17:59.554Z,13.60
2022-08-05T05:21:41.488Z,13.50
2022-08-05T05:25:32.833Z,13.50
2022-08-05T05:29:22.708Z,13.50
2022-08-05T05:33:17.118Z,13.40
2022-08-05T05:37:01.804Z,13.40
2022-08-05T05:40:51.217Z,13.40
2022-08-05T05:44:37.511Z,13.30
2022-08-05T05:48:27.398Z,13.30
2022-08-05T05:52:20.206Z,13.30
2022-08-05T05:56:10.612Z,13.20
2022-08-05T05:59:53.004Z,13.20
2022-08-05T06:03:53.742Z,13.20
2022-08-05T06:07:42.474Z,13.20
2022-08-05T06:11:41.528Z,13.20
2022-08-05T06:16:29.280Z,13.30
2022-08-05T06:19:57.015Z,13.30
2022-08-05T06:23:44.083Z,13.40
2022-08-05T06:28:11.033Z,13.40
2022-08-05T06:31:30.495Z,13.50
2022-08-05T06:35:15.453Z,13.50
2022-08-05T06:39:15.992Z,13.60
2022-08-05T06:42:57.967Z,13.60
2022-08-05T06:46:39.853Z,13.70
2022-08-05T06:50:29.254Z,13.80
2022-08-05T06:54:18.985Z,13.90
2022-08-05T06:58:11.744Z,14.20
2022-08-05T07:02:03.020Z,14.80
2022-08-05T07:05:46.210Z,15.30
2022-08-05T07:09:32.198Z,15.60
2022-08-05T07:13:57.114Z,15.70
2022-08-05T07:18:02.050Z,15.80
2022-08-05T07:21:59.837Z,15.80
2022-08-05T07:25:56.067Z,15.70
2022-08-05T07:30:24.409Z,15.70
2022-08-05T07:33:41.110Z,15.80
2022-08-05T07:37:23.536Z,15.80
2022-08-05T07:42:07.671Z,15.90
2022-08-05T07:45:19.169Z,16.00
2022-08-05T07:49:21.022Z,16.10
2022-08-05T07:53:02.966Z,16.10
2022-08-05T07:57:13.575Z,16.10
2022-08-05T08:00:48.422Z,16.10
2022-08-05T08:04:37.905Z,16.10
2022-08-05T08:08:20.211Z,16.10
2022-08-05T08:12:11.009Z,16.10
2022-08-05T08:16:34.874Z,16.20
2022-08-05T08:20:44.494Z,16.20
2022-08-05T08:24:05.678Z,16.30
2022-08-05T08:27:51.234Z,16.30
2022-08-05T08:31:33.329Z,16.40
2022-08-05T08:35:15.662Z,16.50
2022-08-05T08:38:58.387Z,16.50
2022-08-05T08:42:46.828Z,16.60
2022-08-05T08:46:33.224Z,16.60
2022-08-05T08:50:31.171Z,16.70
2022-08-05T08:54:19.009Z,16.80
2022-08-05T08:58:03.156Z,16.90
2022-08-05T09:01:46.132Z,17.00
2022-08-05T09:06:08.053Z,17.10
2022-08-05T09:09:42.830Z,17.20
2022-08-05T09:13:31.814Z,17.30
2022-08-05T09:17:40.747Z,17.40
2022-08-05T09:22:18.340Z,17.40
2022-08-05T09:26:01.420Z,17.50
2022-08-05T09:30:01.188Z,17.60
2022-08-05T09:33:52.526Z,17.70
2022-08-05T09:38:17.720Z,17.80
2022-08-05T09:42:03.776Z,17.90
2022-08-05T09:46:07.766Z,18.10
2022-08-05T09:50:02.063Z,18.30
2022-08-05T09:53:53.669Z,18.50
2022-08-05T09:57:40.081Z,18.80
2022-08-05T10:01:32.515Z,19.60
2022-08-05T10:05:18.108Z,20.90
2022-08-05T10:09:27.650Z,22.40
2022-08-05T10:13:10.661Z,23.30
2022-08-05T10:16:56.238Z,24.30
2022-08-05T10:20:43.016Z,25.40
2022-08-05T10:24:28.610Z,26.10
2022-08-05T10:28:17.291Z,26.20
2022-08-05T10:33:02.200Z,26.60
2022-08-05T10:36:05.275Z,27.50
2022-08-05T10:40:03.084Z,28.40
2022-08-05T10:43:52.247Z,28.80
2022-08-05T10:47:47.143Z,29.00
2022-08-05T10:51:57.268Z,29.50
2022-08-05T10:56:14.649Z,30.20
2022-08-05T11:00:20.169Z,30.60
2022-08-05T11:04:23.464Z,30.30
2022-08-05T11:08:33.872Z,30.70
2022-08-05T11:12:26.431Z,31.30
2022-08-05T11:16:47.409Z,31.50
2022-08-05T11:20:41.776Z,32.00
2022-08-05T11:24:30.688Z,31.90
2022-08-05T11:28:17.122Z,32.00
2022-08-05T11:32:29.234Z,31.50
2022-08-05T11:36:13.040Z,31.00
2022-08-05T11:40:00.688Z,30.40
2022-08-05T11:44:07.184Z,29.60
2022-08-05T11:47:50.513Z,29.80
2022-08-05T11:51:44.150Z,30.60
2022-08-05T11:55:36.447Z,31.20
2022-08-05T11:59:27.632Z,30.90
2022-08-05T12:03:29.499Z,31.00
2022-08-05T12:07:18.713Z,31.90
2022-08-05T12:11:28.329Z,32.70
2022-08-05T12:15:35.843Z,33.50
2022-08-05T12:20:25.539Z,34.50
2022-08-05T12:23:24.826Z,35.50
2022-08-05T12:27:21.671Z,35.70
2022-08-05T12:31:07.482Z,36.00
2022-08-05T12:34:49.394Z,36.30
2022-08-05T12:38:31.646Z,36.30
2022-08-05T12:42:19.631Z,35.80
2022-08-05T12:46:01.579Z,34.90
2022-08-05T12:50:02.944Z,33.70
2022-08-05T12:53:55.731Z,33.30
2022-08-05T12:58:38.228Z,33.80
2022-08-05T13:02:04.164Z,33.80
2022-08-05T13:05:46.357Z,34.10
2022-08-05T13:09:33.185Z,34.00
2022-08-05T13:14:06.171Z,34.60
2022-08-05T13:17:31.966Z,34.90
2022-08-05T13:21:23.499Z,35.60
2022-08-05T13:25:19.124Z,36.00
2022-08-05T13:29:05.167Z,36.30
2022-08-05T13:32:50.611Z,36.00
2022-08-05T13:36:34.044Z,35.00
2022-08-05T13:40:36.828Z,34.30
2022-08-05T13:44:18.492Z,34.30
2022-08-05T13:48:09.486Z,34.10
2022-08-05T13:52:18.220Z,34.40
2022-08-05T13:56:02.185Z,34.40
2022-08-05T13:59:57.466Z,34.10
2022-08-05T14:03:41.994Z,34.20
2022-08-05T14:08:00.645Z,34.80
2022-08-05T14:11:31.355Z,35.10
2022-08-05T14:16:04.342Z,34.90
2022-08-05T14:19:15.310Z,35.10
2022-08-05T14:23:00.423Z,35.30
2022-08-05T14:27:02.086Z,34.80
2022-08-05T14:30:46.387Z,34.00
2022-08-05T14:34:28.480Z,33.10
2022-08-05T14:38:31.612Z,32.30
2022-08-05T14:42:19.371Z,31.20
2022-08-05T14:46:03.630Z,30.50
2022-08-05T14:49:59.450Z,30.00
2022-08-05T14:53:44.184Z,29.80
2022-08-05T14:57:34.050Z,29.40
2022-08-05T15:01:48.281Z,29.10
2022-08-05T15:06:12.705Z,28.60
2022-08-05T15:09:51.890Z,28.30
2022-08-05T15:13:45.777Z,28.20
2022-08-05T15:17:45.634Z,28.00
2022-08-05T15:21:28.607Z,27.90
2022-08-05T15:25:13.945Z,28.00
2022-08-05T15:28:56.060Z,28.00
2022-08-05T15:32:38.417Z,28.00
2022-08-05T15:36:24.168Z,28.00
2022-08-05T15:41:03.538Z,27.90
2022-08-05T15:44:09.296Z,27.90
2022-08-05T15:47:54.379Z,27.90
2022-08-05T15:52:10.363Z,27.90
2022-08-05T15:56:04.055Z,27.90
2022-08-05T15:59:44.024Z,27.70
2022-08-05T16:03:27.310Z,27.60
2022-08-05T16:07:10.963Z,27.30
2022-08-05T16:10:52.847Z,27.10
2022-08-05T16:14:34.730Z,27.00
2022-08-05T16:18:16.532Z,27.00
2022-08-05T16:22:02.539Z,27.00
2022-08-05T16:25:45.144Z,27.00
2022-08-05T16:29:31.208Z,26.90
2022-08-05T16:33:19.545Z,26.90
2022-08-05T16:37:01.364Z,26.90
2022-08-05T16:42:12.406Z,26.80
2022-08-05T16:46:04.753Z,26.70
2022-08-05T16:49:09.118Z,26.50
2022-08-05T16:52:51.864Z,26.30
2022-08-05T16:56:36.219Z,26.10
2022-08-05T17:00:26.059Z,25.90
2022-08-05T17:04:16.675Z,25.80
2022-08-05T17:08:00.696Z,25.70
2022-08-05T17:11:48.419Z,25.70
2022-08-05T17:15:48.771Z,25.50
2022-08-05T17:19:33.011Z,25.40
2022-08-05T17:24:03.155Z,25.40
2022-08-05T17:27:17.753Z,25.40
2022-08-05T17:31:00.394Z,25.40
2022-08-05T17:34:50.598Z,25.50
2022-08-05T17:38:34.961Z,25.40
2022-08-05T17:42:22.014Z,25.30
2022-08-05T17:46:06.543Z,25.10
2022-08-05T17:50:04.264Z,25.00
2022-08-05T17:53:54.650Z,24.90
2022-08-05T17:57:40.020Z,24.70
2022-08-05T18:01:30.488Z,24.60
2022-08-05T18:05:35.352Z,24.40
2022-08-05T18:09:17.874Z,24.30
2022-08-05T18:12:59.700Z,24.10
2022-08-05T18:16:51.367Z,24.00
2022-08-05T18:20:34.216Z,23.90
2022-08-05T18:24:16.115Z,23.80
2022-08-05T18:27:57.941Z,23.70
2022-08-05T18:31:43.134Z,23.50
2022-08-05T18:35:28.301Z,23.40
2022-08-05T18:40:29.711Z,23.30
2022-08-05T18:43:31.697Z,23.30
2022-08-05T18:47:19.958Z,23.20
2022-08-05T18:52:04.237Z,23.10
2022-08-05T18:55:25.314Z,23.00
2022-08-05T18:59:42.967Z,22.90
2022-08-05T19:03:09.609Z,22.80
2022-08-05T19:06:54.643Z,22.80
2022-08-05T19:10:37.530Z,22.60
2022-08-05T19:14:52.155Z,22.50
2022-08-05T19:18:22.818Z,22.40
2022-08-05T19:22:05.350Z,22.30
2022-08-05T19:25:47.245Z,22.20
2022-08-05T19:29:36.202Z,22.00
2022-08-05T19:33:35.578Z,21.90
2022-08-05T19:37:18.507Z,21.90
2022-08-05T19:41:08.987Z,21.70
2022-08-05T19:44:52.945Z,21.60
2022-08-05T19:48:38.427Z,21.50
2022-08-05T19:52:40.588Z,21.40
2022-08-05T19:56:32.388Z,21.30
2022-08-05T20:00:16.610Z,21.20
2022-08-05T20:04:03.115Z,21.10
2022-08-05T20:07:48.237Z,21.00
2022-08-05T20:11:31.160Z,20.90
2022-08-05T20:15:48.272Z,20.80
2022-08-05T20:19:23.052Z,20.70
2022-08-05T20:23:04.914Z,20.60
2022-08-05T20:26:46.740Z,20.60
2022-08-05T20:30:30.317Z,20.50
2022-08-05T20:34:12.512Z,20.40
2022-08-05T20:38:05.725Z,20.30
2022-08-05T20:41:48.807Z,20.20
2022-08-05T20:45:55.813Z,20.20
2022-08-05T20:49:39.466Z,20.10
2022-08-05T20:53:36.792Z,20.00
2022-08-05T20:57:42.050Z,19.90
2022-08-05T21:01:21.314Z,19.80
2022-08-05T21:05:19.465Z,19.80
2022-08-05T21:09:07.941Z,19.70
2022-08-05T21:12:57.686Z,19.60
2022-08-05T21:16:50.206Z,19.50
2022-08-05T21:20:33.018Z,19.40
2022-08-05T21:24:15.904Z,19.30
2022-08-05T21:27:58.557Z,19.30
2022-08-05T21:31:41.650Z,19.20
2022-08-05T21:35:29.967Z,19.10
2022-08-05T21:39:27.103Z,19.10
2022-08-05T21:43:23.854Z,19.00
2022-08-05T21:47:06.296Z,18.90
2022-08-05T21:50:59.481Z,18.90
2022-08-05T21:54:41.470Z,18.80
2022-08-05T21:58:31.873Z,18.80
2022-08-05T22:02:14.161Z,18.80
2022-08-05T22:05:55.980Z,18.60
2022-08-05T22:09:45.437Z,18.60
2022-08-05T22:14:19.826Z,18.60
2022-08-05T22:17:30.024Z,18.50
2022-08-05T22:21:19.354Z,18.40
2022-08-05T22:25:27.535Z,18.40
2022-08-05T22:29:26.300Z,18.30
2022-08-05T22:33:15.155Z,18.20
2022-08-05T22:37:00.365Z,18.20
2022-08-05T22:40:42.300Z,18.10
2022-08-05T22:44:32.041Z,18.10
2022-08-05T22:48:13.884Z,18.00
2022-08-05T22:52:06.991Z,17.90
2022-08-05T22:55:57.075Z,17.80
2022-08-05T22:59:43.708Z,17.80
2022-08-05T23:03:58.000Z,17.70
2022-08-05T23:07:30.401Z,17.60
2022-08-05T23:11:12.753Z,17.50
2022-08-05T23:14:54.991Z,17.50
2022-08-05T23:18:38.571Z,17.40
2022-08-05T23:22:27.140Z,17.40
2022-08-05T23:26:09.601Z,17.30
2022-08-05T23:29:51.460Z,17.20
2022-08-05T23:34:04.982Z,17.10
2022-08-05T23:37:36.689Z,17.10
2022-08-05T23:41:19.256Z,17.00
2022-08-05T23:45:01.068Z,17.00
2022-08-05T23:48:42.888Z,16.90
2022-08-05T23:52:35.925Z,16.80
2022-08-05T23:56:23.676Z,16.80
